VIV3156 MMGL-MMSD
Flight info
| Callsign | VIV3156 |
|---|---|
| Flight time | 1h 7m |
| Altitude | 34000 |
| Route | SEDEM1B SEDEM UJ3 RADAP UT153 DEDKU UT14 TENAY TENAY1A |
| Aircraft | A21N/M-SDE3FGHIRWY/LB1 |
Departure
| Time | 2026-05-08 17:12 |
|---|---|
| Airport | Guadalajara International Airport (MMGL) |
Arrival
| Time | 2026-05-08 18:19 |
|---|---|
| Airport | Los Cabos International Airport (MMSD) |
| Time | Latitude | Longitude | Altitude | Speed | Heading |
|---|---|---|---|---|---|
| 2026-05-08 16:39 | 20.52357 | -103.29867 | 5028 ft | 0 kts | 19° |
| 2026-05-08 17:00 | 20.52347 | -103.29871 | 5028 ft | 2 kts | 21° |
| 2026-05-08 17:00 | 20.52334 | -103.29879 | 5028 ft | 2 kts | 44° |
| 2026-05-08 17:00 | 20.52324 | -103.29891 | 5028 ft | 2 kts | 60° |
| 2026-05-08 17:00 | 20.52318 | -103.29906 | 5028 ft | 2 kts | 77° |
| 2026-05-08 17:01 | 20.52317 | -103.29923 | 5028 ft | 2 kts | 94° |
| 2026-05-08 17:01 | 20.52320 | -103.29938 | 5028 ft | 2 kts | 111° |
| 2026-05-08 17:01 | 20.52325 | -103.29953 | 5028 ft | 2 kts | 108° |
| 2026-05-08 17:01 | 20.52330 | -103.29968 | 5028 ft | 2 kts | 109° |
| 2026-05-08 17:02 | 20.52334 | -103.29981 | 5028 ft | 0 kts | 109° |
| 2026-05-08 17:05 | 20.52334 | -103.29980 | 5028 ft | 0 kts | 109° |
| 2026-05-08 17:06 | 20.52332 | -103.29974 | 5028 ft | 1 kts | 109° |
| 2026-05-08 17:06 | 20.52329 | -103.29964 | 5028 ft | 1 kts | 109° |
| 2026-05-08 17:06 | 20.52324 | -103.29951 | 5028 ft | 2 kts | 109° |
| 2026-05-08 17:06 | 20.52318 | -103.29932 | 5028 ft | 3 kts | 109° |
| 2026-05-08 17:07 | 20.52306 | -103.29903 | 5028 ft | 5 kts | 116° |
| 2026-05-08 17:07 | 20.52284 | -103.29855 | 5028 ft | 8 kts | 116° |
| 2026-05-08 17:07 | 20.52254 | -103.29791 | 5028 ft | 10 kts | 118° |
| 2026-05-08 17:07 | 20.52196 | -103.29766 | 5028 ft | 9 kts | 199° |
| 2026-05-08 17:08 | 20.52130 | -103.29790 | 5029 ft | 9 kts | 199° |
| 2026-05-08 17:08 | 20.52069 | -103.29787 | 5029 ft | 9 kts | 137° |
| 2026-05-08 17:08 | 20.52037 | -103.29725 | 5029 ft | 9 kts | 114° |
| 2026-05-08 17:08 | 20.52008 | -103.29658 | 5029 ft | 10 kts | 114° |
| 2026-05-08 17:09 | 20.51979 | -103.29588 | 5029 ft | 10 kts | 114° |
| 2026-05-08 17:09 | 20.51946 | -103.29518 | 5029 ft | 9 kts | 139° |
| 2026-05-08 17:09 | 20.51895 | -103.29537 | 5029 ft | 8 kts | 219° |
| 2026-05-08 17:09 | 20.51846 | -103.29572 | 5029 ft | 8 kts | 211° |
| 2026-05-08 17:10 | 20.51815 | -103.29609 | 5029 ft | 5 kts | 296° |
| 2026-05-08 17:10 | 20.51823 | -103.29624 | 5029 ft | 0 kts | 294° |
| 2026-05-08 17:10 | 20.51827 | -103.29635 | 5029 ft | 8 kts | 294° |
| 2026-05-08 17:11 | 20.51952 | -103.29930 | 5030 ft | 78 kts | 294° |
| 2026-05-08 17:11 | 20.52262 | -103.30671 | 5032 ft | 138 kts | 294° |
| 2026-05-08 17:11 | 20.52722 | -103.31770 | 5060 ft | 181 kts | 294° |
| 2026-05-08 17:11 | 20.53239 | -103.32999 | 5524 ft | 183 kts | 293° |
| 2026-05-08 17:12 | 20.53703 | -103.34269 | 6068 ft | 187 kts | 290° |
| 2026-05-08 17:12 | 20.54161 | -103.35545 | 6634 ft | 188 kts | 294° |
| 2026-05-08 17:12 | 20.54887 | -103.36695 | 6978 ft | 191 kts | 313° |
| 2026-05-08 17:12 | 20.55883 | -103.37692 | 7167 ft | 200 kts | 318° |
| 2026-05-08 17:13 | 20.56956 | -103.38709 | 7357 ft | 210 kts | 317° |
| 2026-05-08 17:13 | 20.58056 | -103.39780 | 7543 ft | 219 kts | 316° |
| 2026-05-08 17:13 | 20.59192 | -103.40916 | 7732 ft | 229 kts | 316° |
| 2026-05-08 17:13 | 20.60364 | -103.42114 | 7918 ft | 238 kts | 315° |
| 2026-05-08 17:14 | 20.61577 | -103.43368 | 8148 ft | 245 kts | 315° |
| 2026-05-08 17:14 | 20.62818 | -103.44660 | 8324 ft | 257 kts | 315° |
| 2026-05-08 17:14 | 20.64153 | -103.46058 | 8448 ft | 274 kts | 315° |
| 2026-05-08 17:14 | 20.65551 | -103.47524 | 8712 ft | 286 kts | 315° |
| 2026-05-08 17:15 | 20.66975 | -103.49019 | 9177 ft | 289 kts | 315° |
| 2026-05-08 17:15 | 20.68415 | -103.50532 | 9712 ft | 290 kts | 315° |
| 2026-05-08 17:15 | 20.69856 | -103.52045 | 10210 ft | 293 kts | 314° |
| 2026-05-08 17:15 | 20.71311 | -103.53575 | 10673 ft | 297 kts | 314° |
| 2026-05-08 17:16 | 20.72788 | -103.55130 | 11136 ft | 300 kts | 314° |
| 2026-05-08 17:16 | 20.74278 | -103.56698 | 11594 ft | 304 kts | 314° |
| 2026-05-08 17:16 | 20.75802 | -103.58303 | 12065 ft | 307 kts | 314° |
| 2026-05-08 17:16 | 20.77334 | -103.59917 | 12532 ft | 311 kts | 314° |
| 2026-05-08 17:17 | 20.78874 | -103.61540 | 13000 ft | 314 kts | 313° |
| 2026-05-08 17:17 | 20.80439 | -103.63190 | 13468 ft | 317 kts | 313° |
| 2026-05-08 17:17 | 20.81998 | -103.64836 | 13944 ft | 320 kts | 313° |
| 2026-05-08 17:17 | 20.83600 | -103.66529 | 14389 ft | 324 kts | 313° |
| 2026-05-08 17:18 | 20.85218 | -103.68239 | 14606 ft | 336 kts | 313° |
| 2026-05-08 17:18 | 20.86913 | -103.70032 | 14825 ft | 348 kts | 313° |
| 2026-05-08 17:18 | 20.88671 | -103.71890 | 15040 ft | 360 kts | 313° |
| 2026-05-08 17:18 | 20.90475 | -103.73796 | 15246 ft | 371 kts | 313° |
| 2026-05-08 17:19 | 20.92354 | -103.75781 | 15536 ft | 379 kts | 313° |
| 2026-05-08 17:19 | 20.94224 | -103.77757 | 15960 ft | 381 kts | 313° |
| 2026-05-08 17:19 | 20.96108 | -103.79748 | 16405 ft | 383 kts | 313° |
| 2026-05-08 17:19 | 20.98018 | -103.81768 | 16841 ft | 385 kts | 313° |
| 2026-05-08 17:20 | 20.99906 | -103.83768 | 17266 ft | 387 kts | 313° |
| 2026-05-08 17:20 | 21.01837 | -103.85812 | 17667 ft | 389 kts | 313° |
| 2026-05-08 17:20 | 21.03759 | -103.87848 | 18063 ft | 391 kts | 313° |
| 2026-05-08 17:20 | 21.05684 | -103.89889 | 18474 ft | 392 kts | 312° |
| 2026-05-08 17:21 | 21.07628 | -103.91950 | 18865 ft | 393 kts | 312° |
| 2026-05-08 17:21 | 21.09570 | -103.94012 | 19245 ft | 395 kts | 312° |
| 2026-05-08 17:21 | 21.11524 | -103.96104 | 19610 ft | 396 kts | 311° |
| 2026-05-08 17:21 | 21.13450 | -103.98226 | 19960 ft | 398 kts | 311° |
| 2026-05-08 17:22 | 21.15389 | -104.00380 | 20320 ft | 399 kts | 311° |
| 2026-05-08 17:22 | 21.17305 | -104.02508 | 20671 ft | 401 kts | 311° |
| 2026-05-08 17:22 | 21.19250 | -104.04663 | 21003 ft | 403 kts | 310° |
| 2026-05-08 17:22 | 21.21215 | -104.06838 | 21367 ft | 404 kts | 310° |
| 2026-05-08 17:23 | 21.23153 | -104.08984 | 21724 ft | 404 kts | 310° |
| 2026-05-08 17:23 | 21.25128 | -104.11173 | 22085 ft | 405 kts | 310° |
| 2026-05-08 17:23 | 21.27088 | -104.13348 | 22420 ft | 406 kts | 310° |
| 2026-05-08 17:23 | 21.29042 | -104.15514 | 22738 ft | 407 kts | 310° |
| 2026-05-08 17:24 | 21.31016 | -104.17709 | 23059 ft | 408 kts | 309° |
| 2026-05-08 17:24 | 21.32817 | -104.20075 | 23358 ft | 406 kts | 301° |
| 2026-05-08 17:24 | 21.34240 | -104.22643 | 23643 ft | 404 kts | 293° |
| 2026-05-08 17:24 | 21.35328 | -104.25414 | 23933 ft | 403 kts | 287° |
| 2026-05-08 17:25 | 21.36274 | -104.28248 | 24224 ft | 403 kts | 286° |
| 2026-05-08 17:25 | 21.37197 | -104.31084 | 24500 ft | 405 kts | 286° |
| 2026-05-08 17:25 | 21.38119 | -104.33921 | 24775 ft | 406 kts | 286° |
| 2026-05-08 17:25 | 21.39059 | -104.36804 | 25051 ft | 407 kts | 286° |
| 2026-05-08 17:26 | 21.39996 | -104.39670 | 25323 ft | 408 kts | 286° |
| 2026-05-08 17:26 | 21.40930 | -104.42519 | 25581 ft | 410 kts | 286° |
| 2026-05-08 17:26 | 21.41877 | -104.45412 | 25827 ft | 411 kts | 286° |
| 2026-05-08 17:26 | 21.42822 | -104.48298 | 26081 ft | 412 kts | 286° |
| 2026-05-08 17:27 | 21.43772 | -104.51195 | 26318 ft | 413 kts | 286° |
| 2026-05-08 17:27 | 21.44728 | -104.54111 | 26568 ft | 414 kts | 285° |
| 2026-05-08 17:27 | 21.45687 | -104.57040 | 26825 ft | 414 kts | 285° |
| 2026-05-08 17:27 | 21.46638 | -104.59946 | 27049 ft | 415 kts | 285° |
| 2026-05-08 17:28 | 21.47597 | -104.62882 | 27279 ft | 416 kts | 285° |
| 2026-05-08 17:28 | 21.48550 | -104.65800 | 27519 ft | 417 kts | 285° |
| 2026-05-08 17:28 | 21.49508 | -104.68733 | 27768 ft | 418 kts | 285° |
| 2026-05-08 17:28 | 21.50464 | -104.71661 | 28007 ft | 418 kts | 285° |
| 2026-05-08 17:29 | 21.51427 | -104.74613 | 28233 ft | 419 kts | 285° |
| 2026-05-08 17:29 | 21.52389 | -104.77566 | 28458 ft | 421 kts | 285° |
| 2026-05-08 17:29 | 21.53357 | -104.80537 | 28665 ft | 422 kts | 285° |
| 2026-05-08 17:29 | 21.54327 | -104.83514 | 28890 ft | 423 kts | 285° |
| 2026-05-08 17:30 | 21.55299 | -104.86503 | 29115 ft | 424 kts | 285° |
| 2026-05-08 17:30 | 21.56274 | -104.89497 | 29335 ft | 425 kts | 284° |
| 2026-05-08 17:30 | 21.57237 | -104.92460 | 29568 ft | 426 kts | 285° |
| 2026-05-08 17:30 | 21.58210 | -104.95458 | 29853 ft | 425 kts | 284° |
| 2026-05-08 17:31 | 21.59183 | -104.98457 | 30163 ft | 424 kts | 284° |
| 2026-05-08 17:31 | 21.60153 | -105.01443 | 30491 ft | 422 kts | 284° |
| 2026-05-08 17:31 | 21.61106 | -105.04388 | 30786 ft | 421 kts | 284° |
| 2026-05-08 17:31 | 21.62071 | -105.07370 | 31059 ft | 420 kts | 284° |
| 2026-05-08 17:32 | 21.63020 | -105.10300 | 31315 ft | 420 kts | 284° |
| 2026-05-08 17:32 | 21.63979 | -105.13269 | 31568 ft | 420 kts | 284° |
| 2026-05-08 17:32 | 21.64930 | -105.16216 | 31831 ft | 419 kts | 284° |
| 2026-05-08 17:32 | 21.65888 | -105.19179 | 32105 ft | 418 kts | 284° |
| 2026-05-08 17:33 | 21.66839 | -105.22128 | 32339 ft | 418 kts | 284° |
| 2026-05-08 17:33 | 21.67782 | -105.25059 | 32524 ft | 419 kts | 284° |
| 2026-05-08 17:33 | 21.68743 | -105.28040 | 32733 ft | 420 kts | 283° |
| 2026-05-08 17:33 | 21.69689 | -105.30986 | 32949 ft | 420 kts | 283° |
| 2026-05-08 17:34 | 21.70643 | -105.33948 | 33166 ft | 421 kts | 283° |
| 2026-05-08 17:34 | 21.71604 | -105.36937 | 33387 ft | 421 kts | 283° |
| 2026-05-08 17:34 | 21.72562 | -105.39923 | 33583 ft | 422 kts | 283° |
| 2026-05-08 17:34 | 21.73509 | -105.42876 | 33765 ft | 423 kts | 283° |
| 2026-05-08 17:35 | 21.74468 | -105.45864 | 33881 ft | 424 kts | 283° |
| 2026-05-08 17:35 | 21.75417 | -105.48846 | 33884 ft | 423 kts | 283° |
| 2026-05-08 17:35 | 21.77177 | -105.54889 | 33886 ft | 421 kts | 281° |
| 2026-05-08 17:36 | 21.78894 | -105.60896 | 33888 ft | 422 kts | 282° |
| 2026-05-08 17:36 | 21.80615 | -105.66901 | 33889 ft | 421 kts | 281° |
| 2026-05-08 17:37 | 21.82340 | -105.72916 | 33884 ft | 421 kts | 281° |
| 2026-05-08 17:37 | 21.84068 | -105.78943 | 33888 ft | 421 kts | 281° |
| 2026-05-08 17:38 | 21.85785 | -105.84932 | 33891 ft | 420 kts | 281° |
| 2026-05-08 17:38 | 21.87497 | -105.90914 | 33891 ft | 420 kts | 281° |
| 2026-05-08 17:39 | 21.89216 | -105.96930 | 33893 ft | 420 kts | 281° |
| 2026-05-08 17:39 | 21.90928 | -106.02930 | 33893 ft | 421 kts | 281° |
| 2026-05-08 17:40 | 21.92642 | -106.08946 | 33897 ft | 421 kts | 281° |
| 2026-05-08 17:40 | 21.94353 | -106.14959 | 33898 ft | 420 kts | 281° |
| 2026-05-08 17:41 | 21.96054 | -106.20953 | 33901 ft | 420 kts | 281° |
| 2026-05-08 17:41 | 21.97759 | -106.26965 | 33893 ft | 420 kts | 281° |
| 2026-05-08 17:42 | 21.99466 | -106.32999 | 33890 ft | 419 kts | 281° |
| 2026-05-08 17:42 | 22.01160 | -106.38989 | 33890 ft | 420 kts | 281° |
| 2026-05-08 17:43 | 22.02855 | -106.44995 | 33888 ft | 419 kts | 281° |
| 2026-05-08 17:43 | 22.04539 | -106.50967 | 33890 ft | 418 kts | 281° |
| 2026-05-08 17:44 | 22.06220 | -106.56948 | 33889 ft | 417 kts | 281° |
| 2026-05-08 17:44 | 22.07965 | -106.62897 | 33889 ft | 420 kts | 283° |
| 2026-05-08 17:45 | 22.10043 | -106.68786 | 33890 ft | 421 kts | 284° |
| 2026-05-08 17:45 | 22.12142 | -106.74671 | 33891 ft | 420 kts | 284° |
| 2026-05-08 17:46 | 22.14234 | -106.80544 | 33895 ft | 420 kts | 284° |
| 2026-05-08 17:46 | 22.16330 | -106.86437 | 33903 ft | 420 kts | 284° |
| 2026-05-08 17:47 | 22.18416 | -106.92310 | 33908 ft | 421 kts | 284° |
| 2026-05-08 17:47 | 22.20145 | -106.97189 | 33916 ft | 421 kts | 284° |
| 2026-05-08 17:48 | 22.22581 | -107.04063 | 33917 ft | 419 kts | 284° |
| 2026-05-08 17:48 | 22.24662 | -107.09940 | 33918 ft | 420 kts | 284° |
| 2026-05-08 17:49 | 22.26740 | -107.15821 | 33920 ft | 419 kts | 284° |
| 2026-05-08 17:49 | 22.28798 | -107.21654 | 33920 ft | 419 kts | 284° |
| 2026-05-08 17:50 | 22.30876 | -107.27550 | 33921 ft | 418 kts | 284° |
| 2026-05-08 17:50 | 22.32927 | -107.33382 | 33920 ft | 418 kts | 284° |
| 2026-05-08 17:51 | 22.34995 | -107.39267 | 33919 ft | 418 kts | 284° |
| 2026-05-08 17:51 | 22.37046 | -107.45108 | 33918 ft | 417 kts | 284° |
| 2026-05-08 17:52 | 22.39093 | -107.50948 | 33918 ft | 418 kts | 284° |
| 2026-05-08 17:53 | 22.42177 | -107.59765 | 33917 ft | 418 kts | 284° |
| 2026-05-08 17:53 | 22.44227 | -107.65635 | 33729 ft | 419 kts | 284° |
| 2026-05-08 17:53 | 22.45253 | -107.68574 | 33447 ft | 416 kts | 284° |
| 2026-05-08 17:54 | 22.46271 | -107.71487 | 33164 ft | 414 kts | 284° |
| 2026-05-08 17:54 | 22.47282 | -107.74384 | 32882 ft | 412 kts | 284° |
| 2026-05-08 17:54 | 22.48286 | -107.77268 | 32628 ft | 410 kts | 284° |
| 2026-05-08 17:54 | 22.49276 | -107.80119 | 32385 ft | 410 kts | 284° |
| 2026-05-08 17:55 | 22.50281 | -107.83008 | 32138 ft | 411 kts | 284° |
| 2026-05-08 17:55 | 22.51284 | -107.85900 | 31892 ft | 411 kts | 284° |
| 2026-05-08 17:55 | 22.52285 | -107.88784 | 31648 ft | 411 kts | 284° |
| 2026-05-08 17:55 | 22.53286 | -107.91666 | 31402 ft | 412 kts | 284° |
| 2026-05-08 17:56 | 22.54291 | -107.94567 | 31157 ft | 412 kts | 284° |
| 2026-05-08 17:56 | 22.55301 | -107.97478 | 30912 ft | 412 kts | 284° |
| 2026-05-08 17:56 | 22.56306 | -108.00378 | 30665 ft | 413 kts | 284° |
| 2026-05-08 17:56 | 22.57311 | -108.03281 | 30421 ft | 414 kts | 285° |
| 2026-05-08 17:57 | 22.58309 | -108.06168 | 30180 ft | 414 kts | 285° |
| 2026-05-08 17:57 | 22.59321 | -108.09093 | 29936 ft | 413 kts | 285° |
| 2026-05-08 17:57 | 22.60323 | -108.11992 | 29691 ft | 413 kts | 285° |
| 2026-05-08 17:57 | 22.61325 | -108.14895 | 29308 ft | 415 kts | 285° |
| 2026-05-08 17:58 | 22.62335 | -108.17825 | 28759 ft | 413 kts | 285° |
| 2026-05-08 17:58 | 22.63331 | -108.20712 | 28346 ft | 408 kts | 286° |
| 2026-05-08 17:58 | 22.64319 | -108.23572 | 27854 ft | 405 kts | 286° |
| 2026-05-08 17:58 | 22.65296 | -108.26409 | 27337 ft | 403 kts | 286° |
| 2026-05-08 17:59 | 22.66265 | -108.29222 | 26804 ft | 401 kts | 286° |
| 2026-05-08 17:59 | 22.67240 | -108.32059 | 26245 ft | 399 kts | 286° |
| 2026-05-08 17:59 | 22.68200 | -108.34851 | 25691 ft | 398 kts | 286° |
| 2026-05-08 17:59 | 22.69155 | -108.37631 | 25137 ft | 397 kts | 286° |
| 2026-05-08 18:00 | 22.70112 | -108.40424 | 24597 ft | 395 kts | 286° |
| 2026-05-08 18:00 | 22.72011 | -108.45966 | 23511 ft | 393 kts | 287° |
| 2026-05-08 18:00 | 22.72961 | -108.48740 | 22971 ft | 392 kts | 287° |
| 2026-05-08 18:01 | 22.73905 | -108.51500 | 22434 ft | 391 kts | 287° |
| 2026-05-08 18:01 | 22.74848 | -108.54252 | 21918 ft | 389 kts | 287° |
| 2026-05-08 18:01 | 22.75783 | -108.56982 | 21419 ft | 387 kts | 287° |
| 2026-05-08 18:01 | 22.76711 | -108.59699 | 20928 ft | 385 kts | 287° |
| 2026-05-08 18:02 | 22.77632 | -108.62393 | 20444 ft | 382 kts | 287° |
| 2026-05-08 18:02 | 22.78247 | -108.64194 | 20124 ft | 381 kts | 288° |
| 2026-05-08 18:02 | 22.79465 | -108.67767 | 19494 ft | 377 kts | 287° |
| 2026-05-08 18:02 | 22.80368 | -108.70413 | 19018 ft | 375 kts | 287° |
| 2026-05-08 18:03 | 22.81261 | -108.73033 | 18553 ft | 373 kts | 287° |
| 2026-05-08 18:03 | 22.82160 | -108.75676 | 18075 ft | 371 kts | 287° |
| 2026-05-08 18:03 | 22.83049 | -108.78291 | 17596 ft | 369 kts | 287° |
| 2026-05-08 18:03 | 22.83925 | -108.80868 | 17132 ft | 367 kts | 287° |
| 2026-05-08 18:04 | 22.84809 | -108.83472 | 16671 ft | 365 kts | 287° |
| 2026-05-08 18:04 | 22.85675 | -108.86021 | 16227 ft | 362 kts | 287° |
| 2026-05-08 18:04 | 22.86540 | -108.88567 | 15791 ft | 359 kts | 287° |
| 2026-05-08 18:04 | 22.87401 | -108.91105 | 15348 ft | 357 kts | 287° |
| 2026-05-08 18:05 | 22.88256 | -108.93626 | 14902 ft | 354 kts | 287° |
| 2026-05-08 18:05 | 22.89101 | -108.96119 | 14465 ft | 352 kts | 287° |
| 2026-05-08 18:05 | 22.89938 | -108.98592 | 14035 ft | 349 kts | 287° |
| 2026-05-08 18:05 | 22.90773 | -109.01057 | 13612 ft | 345 kts | 287° |
| 2026-05-08 18:06 | 22.91586 | -109.03462 | 13201 ft | 342 kts | 287° |
| 2026-05-08 18:06 | 22.92401 | -109.05874 | 12754 ft | 340 kts | 287° |
| 2026-05-08 18:06 | 22.93218 | -109.08292 | 12282 ft | 338 kts | 287° |
| 2026-05-08 18:06 | 22.94021 | -109.10670 | 11827 ft | 337 kts | 288° |
| 2026-05-08 18:07 | 22.94822 | -109.13045 | 11363 ft | 336 kts | 288° |
| 2026-05-08 18:07 | 22.95620 | -109.15414 | 10900 ft | 334 kts | 288° |
| 2026-05-08 18:07 | 22.96405 | -109.17741 | 10551 ft | 328 kts | 288° |
| 2026-05-08 18:07 | 22.97172 | -109.20015 | 10407 ft | 315 kts | 288° |
| 2026-05-08 18:08 | 22.97918 | -109.22230 | 10265 ft | 304 kts | 288° |
| 2026-05-08 18:08 | 22.98632 | -109.24348 | 10066 ft | 294 kts | 288° |
| 2026-05-08 18:08 | 22.99312 | -109.26369 | 9956 ft | 282 kts | 288° |
| 2026-05-08 18:08 | 22.99955 | -109.28358 | 9625 ft | 279 kts | 284° |
| 2026-05-08 18:09 | 23.00263 | -109.30430 | 9231 ft | 276 kts | 271° |
| 2026-05-08 18:09 | 23.00202 | -109.32489 | 8884 ft | 274 kts | 266° |
| 2026-05-08 18:09 | 23.00054 | -109.34528 | 8538 ft | 272 kts | 265° |
| 2026-05-08 18:09 | 22.99897 | -109.36579 | 8178 ft | 270 kts | 265° |
| 2026-05-08 18:10 | 22.99745 | -109.38582 | 7838 ft | 268 kts | 266° |
| 2026-05-08 18:10 | 22.99596 | -109.40594 | 7496 ft | 266 kts | 266° |
| 2026-05-08 18:10 | 22.99450 | -109.42580 | 7156 ft | 264 kts | 266° |
| 2026-05-08 18:10 | 22.99304 | -109.44575 | 6814 ft | 263 kts | 266° |
| 2026-05-08 18:11 | 22.99162 | -109.46520 | 6481 ft | 261 kts | 266° |
| 2026-05-08 18:11 | 22.99021 | -109.48460 | 6152 ft | 254 kts | 267° |
| 2026-05-08 18:11 | 22.98883 | -109.50354 | 5848 ft | 249 kts | 267° |
| 2026-05-08 18:11 | 22.98749 | -109.52188 | 5514 ft | 241 kts | 267° |
| 2026-05-08 18:12 | 22.98619 | -109.53966 | 5184 ft | 232 kts | 267° |
| 2026-05-08 18:12 | 22.98495 | -109.55666 | 4888 ft | 222 kts | 267° |
| 2026-05-08 18:12 | 22.98374 | -109.57301 | 4604 ft | 212 kts | 268° |
| 2026-05-08 18:12 | 22.98258 | -109.58874 | 4334 ft | 206 kts | 268° |
| 2026-05-08 18:13 | 22.98147 | -109.60416 | 4084 ft | 206 kts | 267° |
| 2026-05-08 18:13 | 22.98027 | -109.61948 | 3963 ft | 206 kts | 266° |
| 2026-05-08 18:13 | 22.97876 | -109.63502 | 3935 ft | 207 kts | 266° |
| 2026-05-08 18:13 | 22.97719 | -109.65067 | 3857 ft | 207 kts | 266° |
| 2026-05-08 18:14 | 22.97567 | -109.66601 | 3765 ft | 206 kts | 266° |
| 2026-05-08 18:14 | 22.97421 | -109.68148 | 3631 ft | 206 kts | 269° |
| 2026-05-08 18:14 | 22.97728 | -109.69628 | 3499 ft | 201 kts | 307° |
| 2026-05-08 18:14 | 22.98849 | -109.70427 | 3297 ft | 196 kts | 348° |
| 2026-05-08 18:15 | 23.00178 | -109.70561 | 3045 ft | 181 kts | 1° |
| 2026-05-08 18:15 | 23.01394 | -109.70584 | 2777 ft | 168 kts | 0° |
| 2026-05-08 18:15 | 23.02517 | -109.70654 | 2548 ft | 157 kts | 358° |
| 2026-05-08 18:15 | 23.03588 | -109.70760 | 2336 ft | 150 kts | 357° |
| 2026-05-08 18:16 | 23.04624 | -109.70875 | 2158 ft | 151 kts | 357° |
| 2026-05-08 18:16 | 23.05678 | -109.70998 | 1947 ft | 151 kts | 357° |
| 2026-05-08 18:16 | 23.06713 | -109.71117 | 1742 ft | 151 kts | 357° |
| 2026-05-08 18:16 | 23.07778 | -109.71238 | 1532 ft | 152 kts | 356° |
| 2026-05-08 18:17 | 23.08822 | -109.71357 | 1320 ft | 151 kts | 356° |
| 2026-05-08 18:17 | 23.09870 | -109.71477 | 1118 ft | 149 kts | 355° |
| 2026-05-08 18:17 | 23.10891 | -109.71593 | 913 ft | 147 kts | 355° |
| 2026-05-08 18:17 | 23.11916 | -109.71710 | 710 ft | 145 kts | 354° |
| 2026-05-08 18:18 | 23.12911 | -109.71812 | 514 ft | 143 kts | 354° |
| 2026-05-08 18:18 | 23.13910 | -109.71927 | 343 ft | 142 kts | 353° |
| 2026-05-08 18:18 | 23.14817 | -109.72029 | 355 ft | 111 kts | 354° |
| 2026-05-08 18:18 | 23.15416 | -109.72099 | 372 ft | 58 kts | 353° |
| 2026-05-08 18:19 | 23.15708 | -109.72131 | 378 ft | 25 kts | 354° |
| 2026-05-08 18:19 | 23.15773 | -109.72134 | 379 ft | 2 kts | 1° |
| 2026-05-08 18:19 | 23.15784 | -109.72134 | 379 ft | 1 kts | 6° |
| 2026-05-08 18:19 | 23.15818 | -109.72125 | 380 ft | 9 kts | 18° |
| 2026-05-08 18:20 | 23.15877 | -109.72099 | 380 ft | 9 kts | 23° |
| 2026-05-08 18:20 | 23.15938 | -109.72070 | 381 ft | 9 kts | 24° |
| 2026-05-08 18:20 | 23.16000 | -109.72041 | 381 ft | 9 kts | 24° |
| 2026-05-08 18:20 | 23.16066 | -109.72009 | 381 ft | 10 kts | 23° |
| 2026-05-08 18:21 | 23.16126 | -109.71964 | 381 ft | 9 kts | 59° |
| 2026-05-08 18:21 | 23.16149 | -109.71906 | 380 ft | 8 kts | 53° |
| 2026-05-08 18:21 | 23.16205 | -109.71896 | 380 ft | 8 kts | 354° |
| 2026-05-08 18:21 | 23.16259 | -109.71903 | 381 ft | 6 kts | 353° |
| 2026-05-08 18:22 | 23.16277 | -109.71887 | 381 ft | 4 kts | 99° |
| 2026-05-08 18:22 | 23.16281 | -109.71856 | 380 ft | 0 kts | 81° |
| 2026-05-08 18:22 | 23.16282 | -109.71855 | 380 ft | 0 kts | 81° |